KPRO/PRO METAR and TAF weather

Enter ICAO airport designator
Station Type Date Time Source
KPRO METAR 2022/09/08 04:55 UTC NOAA

KPRO 080455Z AUTO 00000KT 10SM CLR 18/17 A3007 RMK AO2 T01840170


Station Type Date Time Source
KPRO Decoded METAR 2022/09/08 04:55 UTC NOAA

Station name not available
Sep 08, 2022 - 12:55 AM EDT / 2022.09.08 0455 UTC
Wind: Calm:0
Visibility: 10 mile(s):0
Sky conditions: clear
Temperature: 65.1 F (18.4 C)
Dew Point: 62.6 F (17.0 C)
Relative Humidity: 91%
Pressure (altimeter): 30.07 in. Hg (1018 hPa)
ob: KPRO 080455Z AUTO 00000KT 10SM CLR 18/17 A3007 RMK AO2 T01840170
cycle: 5

Station Type Date Time Source
KPRO TAF UTC NOAA

Error!

Example: see airport list